Ama, Louisiana
Current Conditions -  °F | °C
As of 6:53 PM on Tuesday 27 Jan 2015 (Local Time) from KMSY Reporting Station
Clear Clear  
Wind Chill: 64°   Ceiling: Unl
Heat Index: 64°   Visibility: 10mi
Dew Point: 40°   Wind: 5mph
Humidity: 41%   Direction: 340°NNW
Pressure: 30.11"   Gusts: NA
Location:  29.95°N, 90.3°W
Report Text: KMSY 280053Z 34004KT 10SM CLR 18/04 A3011 RMK AO2 SLP200 T01780044
Loading
Personal Weather Stations






























Interactive Weather Map New forecast layout! Learn more

10-Day Weather Forecast

Advertisements
Track Severe Weather on mobile